sensor_id;sensor_type;location;lat;lon;timestamp;pressure;altitude;pressure_sealevel;temperature;humidity
61900;BME280;47853;55.890;37.664;2024-02-16T00:02:20;100939.53;;;-6.85;100.00
61900;BME280;47853;55.890;37.664;2024-02-16T00:04:45;100945.16;;;-6.52;98.54
61900;BME280;47853;55.890;37.664;2024-02-16T00:07:11;100943.94;;;-6.28;95.47
61900;BME280;47853;55.890;37.664;2024-02-16T00:09:36;100928.09;;;-7.40;98.93
61900;BME280;47853;55.890;37.664;2024-02-16T00:12:02;100930.88;;;-6.81;98.74
61900;BME280;47853;55.890;37.664;2024-02-16T00:14:27;100929.53;;;-6.44;98.79
61900;BME280;47853;55.890;37.664;2024-02-16T00:16:53;100931.97;;;-6.99;96.92
61900;BME280;47853;55.890;37.664;2024-02-16T00:19:18;100947.16;;;-6.73;99.02
61900;BME280;47853;55.890;37.664;2024-02-16T00:21:43;100936.06;;;-6.81;98.22
61900;BME280;47853;55.890;37.664;2024-02-16T00:24:09;100947.28;;;-6.85;97.04
61900;BME280;47853;55.890;37.664;2024-02-16T00:26:36;100915.31;;;-7.54;100.00
61900;BME280;47853;55.890;37.664;2024-02-16T00:29:01;100939.41;;;-7.57;100.00
61900;BME280;47853;55.890;37.664;2024-02-16T00:31:27;100902.59;;;-7.76;100.00
61900;BME280;47853;55.890;37.664;2024-02-16T00:33:52;100919.59;;;-6.74;100.00
61900;BME280;47853;55.890;37.664;2024-02-16T00:36:18;100930.53;;;-7.30;100.00
61900;BME280;47853;55.890;37.664;2024-02-16T00:38:43;100928.72;;;-6.46;98.59
61900;BME280;47853;55.890;37.664;2024-02-16T00:41:18;100922.03;;;-5.51;91.13
61900;BME280;47853;55.890;37.664;2024-02-16T00:43:44;100927.88;;;-5.92;92.22
61900;BME280;47853;55.890;37.664;2024-02-16T00:46:09;100929.94;;;-6.13;92.26
61900;BME280;47853;55.890;37.664;2024-02-16T00:48:34;100930.13;;;-6.25;95.19
61900;BME280;47853;55.890;37.664;2024-02-16T00:51:00;100929.19;;;-4.73;89.92
61900;BME280;47853;55.890;37.664;2024-02-16T00:53:25;100905.13;;;-4.80;83.91
61900;BME280;47853;55.890;37.664;2024-02-16T00:55:51;100907.03;;;-4.90;80.84
61900;BME280;47853;55.890;37.664;2024-02-16T00:58:16;100927.69;;;-5.81;82.18
61900;BME280;47853;55.890;37.664;2024-02-16T01:00:42;100923.59;;;-5.94;85.38
61900;BME280;47853;55.890;37.664;2024-02-16T01:03:07;100906.78;;;-5.20;82.38
61900;BME280;47853;55.890;37.664;2024-02-16T01:05:33;100907.44;;;-6.06;86.17
61900;BME280;47853;55.890;37.664;2024-02-16T01:08:01;100901.13;;;-5.91;86.76
61900;BME280;47853;55.890;37.664;2024-02-16T01:10:26;100921.34;;;-6.77;89.98
61900;BME280;47853;55.890;37.664;2024-02-16T01:12:52;100933.75;;;-6.37;93.18
61900;BME280;47853;55.890;37.664;2024-02-16T01:15:17;100927.47;;;-5.18;89.07
61900;BME280;47853;55.890;37.664;2024-02-16T01:17:43;100918.13;;;-4.41;82.47
61900;BME280;47853;55.890;37.664;2024-02-16T01:20:08;100926.13;;;-3.74;77.94
61900;BME280;47853;55.890;37.664;2024-02-16T01:22:34;100929.50;;;-5.34;76.22
61900;BME280;47853;55.890;37.664;2024-02-16T01:24:59;100928.78;;;-5.93;83.65
61900;BME280;47853;55.890;37.664;2024-02-16T01:27:25;100913.03;;;-5.80;83.40
61900;BME280;47853;55.890;37.664;2024-02-16T01:29:50;100907.06;;;-6.37;84.55
61900;BME280;47853;55.890;37.664;2024-02-16T01:32:15;100925.06;;;-6.33;90.96
61900;BME280;47853;55.890;37.664;2024-02-16T01:34:41;100908.72;;;-6.99;92.95
61900;BME280;47853;55.890;37.664;2024-02-16T01:37:06;100916.00;;;-6.63;92.49
61900;BME280;47853;55.890;37.664;2024-02-16T01:39:32;100901.91;;;-7.09;98.13
61900;BME280;47853;55.890;37.664;2024-02-16T01:41:57;100908.84;;;-7.11;97.88
61900;BME280;47853;55.890;37.664;2024-02-16T01:44:22;100906.84;;;-7.69;100.00
61900;BME280;47853;55.890;37.664;2024-02-16T01:46:48;100908.16;;;-6.57;100.00
61900;BME280;47853;55.890;37.664;2024-02-16T01:49:14;100924.09;;;-6.90;97.48
61900;BME280;47853;55.890;37.664;2024-02-16T01:51:40;100883.56;;;-6.86;98.72
61900;BME280;47853;55.890;37.664;2024-02-16T01:54:06;100876.13;;;-7.11;99.57
61900;BME280;47853;55.890;37.664;2024-02-16T01:56:31;100910.78;;;-6.59;99.14
61900;BME280;47853;55.890;37.664;2024-02-16T01:58:57;100889.69;;;-6.31;96.66
61900;BME280;47853;55.890;37.664;2024-02-16T02:01:22;100900.00;;;-6.92;97.50
61900;BME280;47853;55.890;37.664;2024-02-16T02:03:48;100921.84;;;-7.21;98.87
61900;BME280;47853;55.890;37.664;2024-02-16T02:06:13;100914.47;;;-7.58;100.00
61900;BME280;47853;55.890;37.664;2024-02-16T02:08:38;100899.13;;;-6.92;100.00
61900;BME280;47853;55.890;37.664;2024-02-16T02:11:05;100895.25;;;-6.57;99.76
61900;BME280;47853;55.890;37.664;2024-02-16T02:13:30;100886.56;;;-5.97;96.46
61900;BME280;47853;55.890;37.664;2024-02-16T02:15:57;100901.47;;;-6.72;97.72
61900;BME280;47853;55.890;37.664;2024-02-16T02:18:23;100916.06;;;-6.66;100.00
61900;BME280;47853;55.890;37.664;2024-02-16T02:20:48;100916.31;;;-6.88;100.00
61900;BME280;47853;55.890;37.664;2024-02-16T02:23:14;100904.03;;;-6.08;97.50
61900;BME280;47853;55.890;37.664;2024-02-16T02:25:39;100907.44;;;-6.65;95.31
61900;BME280;47853;55.890;37.664;2024-02-16T02:28:05;100913.38;;;-6.59;99.79
61900;BME280;47853;55.890;37.664;2024-02-16T02:30:30;100886.63;;;-5.49;96.91
61900;BME280;47853;55.890;37.664;2024-02-16T02:32:56;100894.75;;;-5.22;92.20
61900;BME280;47853;55.890;37.664;2024-02-16T02:35:21;100909.75;;;-6.45;94.28
61900;BME280;47853;55.890;37.664;2024-02-16T02:37:47;100914.22;;;-7.32;99.18
61900;BME280;47853;55.890;37.664;2024-02-16T02:40:12;100913.81;;;-6.93;100.00
61900;BME280;47853;55.890;37.664;2024-02-16T02:42:38;100906.53;;;-6.64;100.00
61900;BME280;47853;55.890;37.664;2024-02-16T02:45:03;100898.69;;;-6.00;95.40
61900;BME280;47853;55.890;37.664;2024-02-16T02:47:32;100898.78;;;-6.63;99.72
61900;BME280;47853;55.890;37.664;2024-02-16T02:49:58;100906.22;;;-5.36;96.40
61900;BME280;47853;55.890;37.664;2024-02-16T02:52:23;100899.50;;;-5.46;90.90
61900;BME280;47853;55.890;37.664;2024-02-16T02:54:48;100910.94;;;-4.69;88.06
61900;BME280;47853;55.890;37.664;2024-02-16T02:57:14;100907.41;;;-5.56;85.26
61900;BME280;47853;55.890;37.664;2024-02-16T02:59:39;100915.59;;;-5.29;85.96
61900;BME280;47853;55.890;37.664;2024-02-16T03:02:05;100914.13;;;-6.52;89.85
61900;BME280;47853;55.890;37.664;2024-02-16T03:04:30;100899.16;;;-5.28;90.52
61900;BME280;47853;55.890;37.664;2024-02-16T03:06:58;100910.06;;;-5.57;87.36
61900;BME280;47853;55.890;37.664;2024-02-16T03:09:24;100896.72;;;-6.39;92.05
61900;BME280;47853;55.890;37.664;2024-02-16T03:11:49;100903.88;;;-6.57;94.12
61900;BME280;47853;55.890;37.664;2024-02-16T03:14:16;100922.06;;;-5.53;92.32
61900;BME280;47853;55.890;37.664;2024-02-16T03:16:42;100924.09;;;-5.72;89.16
61900;BME280;47853;55.890;37.664;2024-02-16T03:19:07;100886.03;;;-6.16;89.32
61900;BME280;47853;55.890;37.664;2024-02-16T03:21:33;100902.22;;;-6.61;93.37
61900;BME280;47853;55.890;37.664;2024-02-16T03:23:58;100903.44;;;-6.90;94.11
61900;BME280;47853;55.890;37.664;2024-02-16T03:26:24;100927.59;;;-6.28;95.46
61900;BME280;47853;55.890;37.664;2024-02-16T03:28:49;100938.25;;;-6.53;92.83
61900;BME280;47853;55.890;37.664;2024-02-16T03:33:43;100920.75;;;-5.79;90.31
61900;BME280;47853;55.890;37.664;2024-02-16T03:36:09;100939.13;;;-5.93;89.99
61900;BME280;47853;55.890;37.664;2024-02-16T03:38:35;100939.19;;;-5.99;93.40
61900;BME280;47853;55.890;37.664;2024-02-16T03:41:00;100937.56;;;-6.03;90.80
61900;BME280;47853;55.890;37.664;2024-02-16T03:43:25;100940.34;;;-5.64;91.33
61900;BME280;47853;55.890;37.664;2024-02-16T03:45:54;100909.75;;;-5.40;89.20
61900;BME280;47853;55.890;37.664;2024-02-16T03:48:19;100912.53;;;-5.53;88.21
61900;BME280;47853;55.890;37.664;2024-02-16T03:50:45;100919.16;;;-5.86;88.18
61900;BME280;47853;55.890;37.664;2024-02-16T03:53:11;100906.06;;;-6.94;91.04
61900;BME280;47853;55.890;37.664;2024-02-16T03:55:38;100927.31;;;-6.71;96.20
61900;BME280;47853;55.890;37.664;2024-02-16T03:58:04;100918.50;;;-6.56;97.70
61900;BME280;47853;55.890;37.664;2024-02-16T04:00:29;100907.22;;;-5.43;98.25
61900;BME280;47853;55.890;37.664;2024-02-16T04:02:54;100913.66;;;-6.18;94.38
61900;BME280;47853;55.890;37.664;2024-02-16T04:05:20;100907.53;;;-5.60;92.49
61900;BME280;47853;55.890;37.664;2024-02-16T04:07:45;100915.00;;;-6.53;95.52
61900;BME280;47853;55.890;37.664;2024-02-16T04:10:11;100909.00;;;-5.99;93.42
61900;BME280;47853;55.890;37.664;2024-02-16T04:12:36;100896.91;;;-6.51;95.80
61900;BME280;47853;55.890;37.664;2024-02-16T04:15:03;100862.97;;;-6.30;95.12
61900;BME280;47853;55.890;37.664;2024-02-16T04:17:28;100921.44;;;-6.82;96.31
61900;BME280;47853;55.890;37.664;2024-02-16T04:19:54;100907.25;;;-6.53;98.31
61900;BME280;47853;55.890;37.664;2024-02-16T04:22:19;100904.06;;;-6.71;100.00
61900;BME280;47853;55.890;37.664;2024-02-16T04:24:45;100919.47;;;-6.63;100.00
61900;BME280;47853;55.890;37.664;2024-02-16T04:27:11;100907.75;;;-6.93;100.00
61900;BME280;47853;55.890;37.664;2024-02-16T04:29:36;100892.53;;;-7.17;100.00
61900;BME280;47853;55.890;37.664;2024-02-16T04:32:02;100911.66;;;-7.35;100.00
61900;BME280;47853;55.890;37.664;2024-02-16T04:34:27;100888.34;;;-7.27;100.00
61900;BME280;47853;55.890;37.664;2024-02-16T04:36:53;100897.50;;;-6.34;100.00
61900;BME280;47853;55.890;37.664;2024-02-16T04:39:18;100897.88;;;-6.60;100.00
61900;BME280;47853;55.890;37.664;2024-02-16T04:41:44;100897.78;;;-6.52;100.00
61900;BME280;47853;55.890;37.664;2024-02-16T04:44:12;100882.38;;;-6.59;96.38
61900;BME280;47853;55.890;37.664;2024-02-16T04:46:37;100910.97;;;-5.13;94.65
61900;BME280;47853;55.890;37.664;2024-02-16T04:49:03;100905.09;;;-6.23;92.74
61900;BME280;47853;55.890;37.664;2024-02-16T04:51:28;100900.41;;;-5.49;91.00
61900;BME280;47853;55.890;37.664;2024-02-16T04:53:54;100914.38;;;-6.71;93.54
61900;BME280;47853;55.890;37.664;2024-02-16T04:56:19;100905.09;;;-6.84;97.98
61900;BME280;47853;55.890;37.664;2024-02-16T04:58:45;100894.81;;;-5.74;98.21
61900;BME280;47853;55.890;37.664;2024-02-16T05:01:10;100895.19;;;-6.54;95.50
61900;BME280;47853;55.890;37.664;2024-02-16T05:03:35;100885.94;;;-6.09;95.69
61900;BME280;47853;55.890;37.664;2024-02-16T05:06:04;100899.94;;;-6.24;94.49
61900;BME280;47853;55.890;37.664;2024-02-16T05:08:30;100902.84;;;-7.12;97.55
61900;BME280;47853;55.890;37.664;2024-02-16T05:10:55;100889.59;;;-6.87;98.28
61900;BME280;47853;55.890;37.664;2024-02-16T05:13:20;100893.88;;;-7.61;100.00
61900;BME280;47853;55.890;37.664;2024-02-16T05:15:46;100900.00;;;-7.70;100.00
61900;BME280;47853;55.890;37.664;2024-02-16T05:18:11;100892.69;;;-7.29;100.00
61900;BME280;47853;55.890;37.664;2024-02-16T05:20:37;100909.88;;;-7.26;100.00
61900;BME280;47853;55.890;37.664;2024-02-16T05:23:02;100878.47;;;-7.69;100.00
61900;BME280;47853;55.890;37.664;2024-02-16T05:25:28;100899.16;;;-7.74;100.00
61900;BME280;47853;55.890;37.664;2024-02-16T05:27:53;100901.69;;;-6.88;100.00
61900;BME280;47853;55.890;37.664;2024-02-16T05:30:18;100911.59;;;-6.53;100.00
61900;BME280;47853;55.890;37.664;2024-02-16T05:32:44;100920.88;;;-7.10;100.00
61900;BME280;47853;55.890;37.664;2024-02-16T05:35:10;100912.72;;;-6.76;100.00
61900;BME280;47853;55.890;37.664;2024-02-16T05:37:35;100917.44;;;-5.87;100.00
61900;BME280;47853;55.890;37.664;2024-02-16T05:40:01;100922.97;;;-6.70;100.00
61900;BME280;47853;55.890;37.664;2024-02-16T05:42:26;100929.13;;;-6.79;100.00
61900;BME280;47853;55.890;37.664;2024-02-16T05:44:52;100929.28;;;-6.26;99.12
61900;BME280;47853;55.890;37.664;2024-02-16T05:47:17;100938.50;;;-5.56;96.73
61900;BME280;47853;55.890;37.664;2024-02-16T05:49:45;100945.16;;;-6.52;96.67
61900;BME280;47853;55.890;37.664;2024-02-16T05:52:10;100943.09;;;-5.72;94.86
61900;BME280;47853;55.890;37.664;2024-02-16T05:54:38;100928.25;;;-4.71;87.29
61900;BME280;47853;55.890;37.664;2024-02-16T05:57:04;100948.44;;;-4.44;83.88
61900;BME280;47853;55.890;37.664;2024-02-16T05:59:29;100944.53;;;-4.23;83.46
61900;BME280;47853;55.890;37.664;2024-02-16T06:01:54;100918.81;;;-5.16;81.46
61900;BME280;47853;55.890;37.664;2024-02-16T06:04:20;100937.94;;;-4.79;81.94
61900;BME280;47853;55.890;37.664;2024-02-16T06:06:45;100936.81;;;-6.10;86.78
61900;BME280;47853;55.890;37.664;2024-02-16T06:09:11;100931.34;;;-5.93;88.96
61900;BME280;47853;55.890;37.664;2024-02-16T06:11:37;100947.19;;;-6.77;94.62
61900;BME280;47853;55.890;37.664;2024-02-16T06:14:03;100934.63;;;-5.83;93.21
61900;BME280;47853;55.890;37.664;2024-02-16T06:16:28;100946.19;;;-5.49;91.06
61900;BME280;47853;55.890;37.664;2024-02-16T06:18:53;100947.41;;;-6.29;91.90
61900;BME280;47853;55.890;37.664;2024-02-16T06:21:20;100935.50;;;-5.32;89.30
61900;BME280;47853;55.890;37.664;2024-02-16T06:23:46;100940.00;;;-5.44;86.21
61900;BME280;47853;55.890;37.664;2024-02-16T06:26:11;100939.53;;;-5.66;88.06
61900;BME280;47853;55.890;37.664;2024-02-16T06:28:37;100959.88;;;-5.96;88.07
61900;BME280;47853;55.890;37.664;2024-02-16T06:31:02;100935.34;;;-5.73;88.81
61900;BME280;47853;55.890;37.664;2024-02-16T06:33:28;100961.78;;;-5.54;88.84
61900;BME280;47853;55.890;37.664;2024-02-16T06:35:53;100947.41;;;-5.71;88.30
61900;BME280;47853;55.890;37.664;2024-02-16T06:38:18;100952.06;;;-6.54;93.69
61900;BME280;47853;55.890;37.664;2024-02-16T06:40:44;100958.19;;;-6.60;99.97
61900;BME280;47853;55.890;37.664;2024-02-16T06:43:09;100930.81;;;-6.12;98.89
61900;BME280;47853;55.890;37.664;2024-02-16T06:45:35;100953.38;;;-6.92;99.82
61900;BME280;47853;55.890;37.664;2024-02-16T06:48:00;100940.97;;;-7.37;100.00
61900;BME280;47853;55.890;37.664;2024-02-16T06:50:25;100946.34;;;-6.78;100.00
61900;BME280;47853;55.890;37.664;2024-02-16T06:52:51;100944.63;;;-6.13;98.93
61900;BME280;47853;55.890;37.664;2024-02-16T06:55:16;100942.03;;;-6.77;99.10
61900;BME280;47853;55.890;37.664;2024-02-16T06:57:42;100948.97;;;-6.82;99.62
61900;BME280;47853;55.890;37.664;2024-02-16T07:00:08;100950.00;;;-5.72;98.55
61900;BME280;47853;55.890;37.664;2024-02-16T07:02:33;100937.94;;;-6.28;95.25
61900;BME280;47853;55.890;37.664;2024-02-16T07:04:59;100939.75;;;-6.33;97.83
61900;BME280;47853;55.890;37.664;2024-02-16T07:07:24;100925.66;;;-6.12;96.85
61900;BME280;47853;55.890;37.664;2024-02-16T07:09:50;100942.00;;;-6.10;95.76
61900;BME280;47853;55.890;37.664;2024-02-16T07:12:15;100931.47;;;-5.47;91.88
61900;BME280;47853;55.890;37.664;2024-02-16T07:14:40;100939.84;;;-6.39;93.37
61900;BME280;47853;55.890;37.664;2024-02-16T07:17:06;100917.53;;;-5.40;90.76
61900;BME280;47853;55.890;37.664;2024-02-16T07:19:31;100936.47;;;-6.46;92.29
61900;BME280;47853;55.890;37.664;2024-02-16T07:21:57;100927.06;;;-5.94;93.65
61900;BME280;47853;55.890;37.664;2024-02-16T07:24:22;100944.09;;;-6.35;94.35
61900;BME280;47853;55.890;37.664;2024-02-16T07:26:48;100940.41;;;-5.18;92.16
61900;BME280;47853;55.890;37.664;2024-02-16T07:29:13;100922.34;;;-5.70;91.04
61900;BME280;47853;55.890;37.664;2024-02-16T07:31:38;100926.13;;;-5.90;91.52
61900;BME280;47853;55.890;37.664;2024-02-16T07:34:04;100926.19;;;-4.97;86.56
61900;BME280;47853;55.890;37.664;2024-02-16T07:36:30;100926.47;;;-5.60;85.43
61900;BME280;47853;55.890;37.664;2024-02-16T07:38:55;100915.63;;;-5.32;84.85
61900;BME280;47853;55.890;37.664;2024-02-16T07:41:20;100930.94;;;-5.66;87.50
61900;BME280;47853;55.890;37.664;2024-02-16T07:43:46;100929.78;;;-6.02;87.75
61900;BME280;47853;55.890;37.664;2024-02-16T07:46:11;100937.94;;;-5.73;88.83
61900;BME280;47853;55.890;37.664;2024-02-16T07:48:37;100940.34;;;-5.64;90.37
61900;BME280;47853;55.890;37.664;2024-02-16T07:51:02;100940.00;;;-5.97;88.17
61900;BME280;47853;55.890;37.664;2024-02-16T07:53:28;100941.44;;;-5.26;87.65
61900;BME280;47853;55.890;37.664;2024-02-16T07:55:54;100950.25;;;-5.36;85.95
61900;BME280;47853;55.890;37.664;2024-02-16T07:58:20;100953.97;;;-5.53;86.48
61900;BME280;47853;55.890;37.664;2024-02-16T08:00:45;100955.13;;;-5.20;84.65
61900;BME280;47853;55.890;37.664;2024-02-16T08:03:11;100967.03;;;-6.12;86.90
61900;BME280;47853;55.890;37.664;2024-02-16T08:05:36;100957.91;;;-4.83;86.36
61900;BME280;47853;55.890;37.664;2024-02-16T08:08:01;100963.31;;;-5.42;83.80
61900;BME280;47853;55.890;37.664;2024-02-16T08:10:27;100948.94;;;-5.12;84.11
61900;BME280;47853;55.890;37.664;2024-02-16T08:12:52;100948.97;;;-5.13;84.26
61900;BME280;47853;55.890;37.664;2024-02-16T08:15:18;100955.59;;;-4.98;82.79
61900;BME280;47853;55.890;37.664;2024-02-16T08:17:43;100939.91;;;-4.49;84.27
61900;BME280;47853;55.890;37.664;2024-02-16T08:20:09;100950.72;;;-3.91;77.24
61900;BME280;47853;55.890;37.664;2024-02-16T08:22:35;100938.50;;;-4.24;76.94
61900;BME280;47853;55.890;37.664;2024-02-16T08:25:00;100944.06;;;-4.42;79.49
61900;BME280;47853;55.890;37.664;2024-02-16T08:27:26;100939.28;;;-5.03;82.09
61900;BME280;47853;55.890;37.664;2024-02-16T08:29:51;100953.28;;;-4.68;83.41
61900;BME280;47853;55.890;37.664;2024-02-16T08:32:17;100948.34;;;-4.38;85.69
61900;BME280;47853;55.890;37.664;2024-02-16T08:34:42;100942.63;;;-4.97;83.44
61900;BME280;47853;55.890;37.664;2024-02-16T08:37:08;100939.97;;;-4.51;85.30
61900;BME280;47853;55.890;37.664;2024-02-16T08:39:33;100941.81;;;-4.56;85.24
61900;BME280;47853;55.890;37.664;2024-02-16T08:41:59;100939.31;;;-4.22;80.97
61900;BME280;47853;55.890;37.664;2024-02-16T08:44:25;100951.56;;;-4.69;79.87
61900;BME280;47853;55.890;37.664;2024-02-16T08:46:51;100942.09;;;-4.72;80.25
61900;BME280;47853;55.890;37.664;2024-02-16T08:49:16;100948.66;;;-4.54;82.73
61900;BME280;47853;55.890;37.664;2024-02-16T08:51:43;100953.63;;;-4.87;84.21
61900;BME280;47853;55.890;37.664;2024-02-16T08:54:08;100960.91;;;-4.21;86.02
61900;BME280;47853;55.890;37.664;2024-02-16T08:56:34;100970.41;;;-4.20;81.05
61900;BME280;47853;55.890;37.664;2024-02-16T08:58:59;100957.19;;;-4.09;81.28
61900;BME280;47853;55.890;37.664;2024-02-16T09:01:38;100966.38;;;-4.74;78.64
61900;BME280;47853;55.890;37.664;2024-02-16T09:04:04;100948.66;;;-5.45;83.60
61900;BME280;47853;55.890;37.664;2024-02-16T09:06:29;100957.00;;;-5.27;83.77
61900;BME280;47853;55.890;37.664;2024-02-16T09:08:55;100958.94;;;-4.91;83.38
61900;BME280;47853;55.890;37.664;2024-02-16T09:11:22;100957.66;;;-5.17;82.79
61900;BME280;47853;55.890;37.664;2024-02-16T09:13:47;100933.31;;;-5.07;83.22
61900;BME280;47853;55.890;37.664;2024-02-16T09:16:13;100926.69;;;-5.24;84.36
61900;BME280;47853;55.890;37.664;2024-02-16T09:18:39;100948.69;;;-4.99;85.55
61900;BME280;47853;55.890;37.664;2024-02-16T09:21:05;100951.69;;;-4.34;80.08
61900;BME280;47853;55.890;37.664;2024-02-16T09:23:32;100945.31;;;-4.59;81.72
61900;BME280;47853;55.890;37.664;2024-02-16T09:25:57;100959.66;;;-5.32;83.64
61900;BME280;47853;55.890;37.664;2024-02-16T09:28:23;100958.06;;;-5.92;89.31
61900;BME280;47853;55.890;37.664;2024-02-16T09:30:48;100944.34;;;-5.98;90.72
61900;BME280;47853;55.890;37.664;2024-02-16T09:33:17;100944.13;;;-5.30;90.83
61900;BME280;47853;55.890;37.664;2024-02-16T09:35:42;100938.44;;;-5.53;92.33
61900;BME280;47853;55.890;37.664;2024-02-16T09:38:08;100934.03;;;-4.99;92.02
61900;BME280;47853;55.890;37.664;2024-02-16T09:40:33;100942.69;;;-4.57;87.17
61900;BME280;47853;55.890;37.664;2024-02-16T09:42:59;100947.72;;;-5.39;87.34
61900;BME280;47853;55.890;37.664;2024-02-16T09:45:25;100916.72;;;-5.44;90.18
61900;BME280;47853;55.890;37.664;2024-02-16T09:47:54;100927.97;;;-4.17;89.36
61900;BME280;47853;55.890;37.664;2024-02-16T09:50:20;100921.09;;;-4.18;83.85
61900;BME280;47853;55.890;37.664;2024-02-16T09:52:49;100908.56;;;-3.31;78.92
61900;BME280;47853;55.890;37.664;2024-02-16T09:55:16;100930.44;;;-3.40;77.20
61900;BME280;47853;55.890;37.664;2024-02-16T09:57:42;100919.97;;;-4.46;79.05
61900;BME280;47853;55.890;37.664;2024-02-16T10:00:08;100916.19;;;-2.94;79.34
61900;BME280;47853;55.890;37.664;2024-02-16T10:02:48;100896.69;;;-4.11;76.93
61900;BME280;47853;55.890;37.664;2024-02-16T10:05:19;100904.56;;;-3.78;79.22
61900;BME280;47853;55.890;37.664;2024-02-16T10:07:45;100907.03;;;-3.07;74.21
61900;BME280;47853;55.890;37.664;2024-02-16T10:10:25;100914.34;;;-3.55;76.27
61900;BME280;47853;55.890;37.664;2024-02-16T10:13:01;100885.94;;;-3.61;74.44
61900;BME280;47853;55.890;37.664;2024-02-16T10:15:26;100901.84;;;-4.88;78.04
61900;BME280;47853;55.890;37.664;2024-02-16T10:18:02;100906.69;;;-5.15;88.17
61900;BME280;47853;55.890;37.664;2024-02-16T10:20:28;100907.00;;;-5.81;91.54
61900;BME280;47853;55.890;37.664;2024-02-16T10:23:09;100896.75;;;-4.13;86.74
61900;BME280;47853;55.890;37.664;2024-02-16T10:25:36;100902.78;;;-3.76;81.57
61900;BME280;47853;55.890;37.664;2024-02-16T10:28:05;100896.94;;;-4.22;82.52
61900;BME280;47853;55.890;37.664;2024-02-16T10:30:30;100895.06;;;-4.53;84.02
61900;BME280;47853;55.890;37.664;2024-02-16T10:32:59;100898.13;;;-3.63;80.14
61900;BME280;47853;55.890;37.664;2024-02-16T10:35:28;100903.31;;;-2.68;78.06
61900;BME280;47853;55.890;37.664;2024-02-16T10:37:55;100882.13;;;-3.16;74.21
61900;BME280;47853;55.890;37.664;2024-02-16T10:40:20;100885.97;;;-4.73;78.93
61900;BME280;47853;55.890;37.664;2024-02-16T10:42:49;100891.88;;;-4.27;81.00
61900;BME280;47853;55.890;37.664;2024-02-16T10:45:15;100889.69;;;-4.08;82.26
61900;BME280;47853;55.890;37.664;2024-02-16T10:47:41;100892.28;;;-3.71;79.44
61900;BME280;47853;55.890;37.664;2024-02-16T10:50:07;100889.94;;;-3.82;78.58
61900;BME280;47853;55.890;37.664;2024-02-16T10:52:33;100903.47;;;-3.36;80.04
61900;BME280;47853;55.890;37.664;2024-02-16T10:55:00;100885.13;;;-4.34;79.28
61900;BME280;47853;55.890;37.664;2024-02-16T10:57:25;100892.97;;;-4.78;81.38
61900;BME280;47853;55.890;37.664;2024-02-16T10:59:52;100868.34;;;-4.57;83.07
61900;BME280;47853;55.890;37.664;2024-02-16T11:02:18;100908.19;;;-3.85;81.07
61900;BME280;47853;55.890;37.664;2024-02-16T11:04:46;100893.88;;;-3.34;80.51
61900;BME280;47853;55.890;37.664;2024-02-16T11:07:15;100896.09;;;-3.52;78.26
61900;BME280;47853;55.890;37.664;2024-02-16T11:09:41;100900.66;;;-3.61;78.52
61900;BME280;47853;55.890;37.664;2024-02-16T11:12:08;100892.78;;;-2.94;75.88
61900;BME280;47853;55.890;37.664;2024-02-16T11:17:11;100907.41;;;-2.59;75.35
61900;BME280;47853;55.890;37.664;2024-02-16T11:19:37;100898.91;;;-2.66;73.11
61900;BME280;47853;55.890;37.664;2024-02-16T11:22:06;100890.19;;;-2.35;70.97
61900;BME280;47853;55.890;37.664;2024-02-16T11:24:33;100883.81;;;-2.53;74.32
61900;BME280;47853;55.890;37.664;2024-02-16T11:27:08;100903.34;;;-3.00;74.71
61900;BME280;47853;55.890;37.664;2024-02-16T11:29:37;100904.56;;;-2.80;73.98
61900;BME280;47853;55.890;37.664;2024-02-16T11:32:03;100885.94;;;-3.61;76.02
61900;BME280;47853;55.890;37.664;2024-02-16T11:34:29;100900.75;;;-3.65;75.93
61900;BME280;47853;55.890;37.664;2024-02-16T11:37:00;100897.75;;;-3.82;81.42
61900;BME280;47853;55.890;37.664;2024-02-16T11:39:27;100888.59;;;-2.39;76.39
61900;BME280;47853;55.890;37.664;2024-02-16T11:42:12;100894.28;;;-3.16;75.59
61900;BME280;47853;55.890;37.664;2024-02-16T11:44:39;100884.66;;;-2.81;76.17
61900;BME280;47853;55.890;37.664;2024-02-16T11:47:08;100880.63;;;-3.89;76.97
61900;BME280;47853;55.890;37.664;2024-02-16T11:49:33;100891.59;;;-3.80;80.58
61900;BME280;47853;55.890;37.664;2024-02-16T11:52:00;100901.28;;;-3.52;82.21
61900;BME280;47853;55.890;37.664;2024-02-16T11:54:25;100899.34;;;-3.43;84.85
61900;BME280;47853;55.890;37.664;2024-02-16T11:56:51;100892.38;;;-2.50;78.38
61900;BME280;47853;55.890;37.664;2024-02-16T11:59:18;100892.91;;;-2.68;76.21
61900;BME280;47853;55.890;37.664;2024-02-16T12:01:54;100894.38;;;-1.76;74.20
61900;BME280;47853;55.890;37.664;2024-02-16T12:04:25;100889.19;;;-1.50;71.05
61900;BME280;47853;55.890;37.664;2024-02-16T12:06:52;100897.19;;;-2.66;71.86
61900;BME280;47853;55.890;37.664;2024-02-16T12:09:18;100896.66;;;-3.73;75.71
61900;BME280;47853;55.890;37.664;2024-02-16T12:11:44;100897.72;;;-3.16;76.94
61900;BME280;47853;55.890;37.664;2024-02-16T12:14:10;100898.97;;;-2.38;71.92
61900;BME280;47853;55.890;37.664;2024-02-16T12:16:37;100906.91;;;-2.42;71.67
61900;BME280;47853;55.890;37.664;2024-02-16T12:19:06;100912.81;;;-3.62;72.17
61900;BME280;47853;55.890;37.664;2024-02-16T12:21:31;100902.94;;;-3.16;73.21
61900;BME280;47853;55.890;37.664;2024-02-16T12:23:57;100898.75;;;-2.90;72.47
61900;BME280;47853;55.890;37.664;2024-02-16T12:26:22;100916.41;;;-4.42;79.81
61900;BME280;47853;55.890;37.664;2024-02-16T12:28:48;100908.66;;;-3.03;77.95
61900;BME280;47853;55.890;37.664;2024-02-16T12:31:20;100908.66;;;-2.14;70.07
61900;BME280;47853;55.890;37.664;2024-02-16T12:33:46;100891.53;;;-1.68;69.47
61900;BME280;47853;55.890;37.664;2024-02-16T12:36:12;100898.78;;;-2.05;68.06
61900;BME280;47853;55.890;37.664;2024-02-16T12:38:41;100895.72;;;-1.64;66.51